Time;durP1;ratioP1;P1;durP2;ratioP2;P2;SDS_P1;SDS_P2;PMS_P1;PMS_P2;Temp;Humidity;BMP_temperature;BMP_pressure;BME280_temperature;BME280_humidity;BME280_pressure;Samples;Min_cycle;Max_cycle;Signal;HPM_P1;HPM_P2
2023/10/01 00:00:29;;;;;;;;;;;20.00;95.10;;;;;;4994437;28;19983;-64
2023/10/01 00:02:56;;;;;;;;;;;20.00;95.10;;;;;;4994266;28;20018;-64
2023/10/01 00:05:23;;;;;;;;;;;19.90;95.60;;;;;;4994214;28;20011;-64
2023/10/01 00:07:51;;;;;;;;;;;19.90;96.10;;;;;;4993725;28;20005;-63
2023/10/01 00:10:17;;;;;;;;;;;19.90;95.80;;;;;;4994329;28;19990;-63
2023/10/01 00:12:47;;;;;;;;;;;19.90;95.50;;;;;;4993990;28;19983;-64
2023/10/01 00:15:17;;;;;;;;;;;19.90;95.60;;;;;;4994345;28;19990;-63
2023/10/01 00:17:48;;;;;;;;;;;19.90;95.60;;;;;;4994223;28;20448;-64
2023/10/01 00:20:22;;;;;;;;;;;19.80;95.90;;;;;;4994145;28;19983;-64
2023/10/01 00:22:50;;;;;;;;;;;19.80;96.00;;;;;;4994151;28;19990;-64
2023/10/01 00:25:16;;;;;;;;;;;19.70;96.50;;;;;;4994008;28;20388;-63
2023/10/01 00:27:42;;;;;;;;;;;19.60;96.80;;;;;;4994035;28;19983;-63
2023/10/01 00:30:09;;;;;;;;;;;19.60;96.80;;;;;;4994211;28;19983;-63
2023/10/01 00:32:36;;;;;;;;;;;19.60;96.70;;;;;;4994046;28;20469;-64
2023/10/01 00:35:04;;;;;;;;;;;19.60;97.00;;;;;;4994039;28;19987;-64
2023/10/01 00:37:29;;;;;;;;;;;19.60;96.90;;;;;;4994008;28;20005;-63
2023/10/01 00:39:56;;;;;;;;;;;19.70;97.30;;;;;;4994036;28;19987;-64
2023/10/01 00:42:25;;;;;;;;;;;19.70;97.10;;;;;;4993750;28;19983;-64
2023/10/01 00:44:50;;;;;;;;;;;19.70;96.90;;;;;;4993989;28;20042;-63
2023/10/01 00:47:16;;;;;;;;;;;19.70;97.20;;;;;;4993982;28;20386;-63
2023/10/01 00:49:46;;;;;;;;;;;19.70;97.20;;;;;;4993809;28;20005;-64
2023/10/01 00:52:18;;;;;;;;;;;19.70;97.20;;;;;;4993877;28;20062;-64
2023/10/01 00:54:47;;;;;;;;;;;19.70;97.30;;;;;;4993848;28;19990;-63
2023/10/01 00:57:15;;;;;;;;;;;19.60;97.50;;;;;;4993716;28;19990;-63
2023/10/01 00:59:43;;;;;;;;;;;19.60;97.30;;;;;;4993850;28;20006;-64
2023/10/01 01:02:09;;;;;;;;;;;19.50;97.30;;;;;;4993819;28;20352;-63
2023/10/01 01:04:42;;;;;;;;;;;19.50;97.50;;;;;;4993653;28;20019;-63
2023/10/01 01:07:15;;;;;;;;;;;19.40;97.50;;;;;;4993797;28;19990;-63
2023/10/01 01:09:41;;;;;;;;;;;19.40;97.90;;;;;;4993715;28;19987;-63
2023/10/01 01:12:07;;;;;;;;;;;19.30;98.30;;;;;;4993592;28;20390;-64
2023/10/01 01:14:33;;;;;;;;;;;19.30;98.60;;;;;;4993687;28;20081;-63
2023/10/01 01:16:59;;;;;;;;;;;19.20;98.70;;;;;;4993632;28;20433;-64
2023/10/01 01:19:26;;;;;;;;;;;19.20;98.70;;;;;;4996927;28;20085;-64
2023/10/01 01:21:52;;;;;;;;;;;19.30;98.60;;;;;;4997281;28;20025;-63
2023/10/01 01:24:21;;;;;;;;;;;19.30;98.50;;;;;;4997253;28;20077;-64
2023/10/01 01:26:51;;;;;;;;;;;19.30;98.90;;;;;;4996897;28;20444;-64
2023/10/01 01:29:33;;;;;;;;;;;19.30;98.70;;;;;;4997138;28;19988;-64
2023/10/01 01:32:07;;;;;;;;;;;19.30;99.00;;;;;;4997036;28;19982;-64
2023/10/01 01:34:35;;;;;;;;;;;19.30;98.90;;;;;;4996927;28;19987;-63
2023/10/01 01:37:19;;;;;;;;;;;19.30;99.40;;;;;;4996862;28;20082;-64
2023/10/01 01:39:48;;;;;;;;;;;19.20;99.40;;;;;;4996699;28;19990;-63
2023/10/01 01:42:21;;;;;;;;;;;19.20;99.60;;;;;;4996811;28;19983;-64
2023/10/01 01:45:14;;;;;;;;;;;19.20;99.30;;;;;;4996804;28;20014;-63
2023/10/01 01:47:35;;;;;;;;;;;19.20;99.70;;;;;;4996557;28;19997;-63
2023/10/01 01:50:17;;;;;;;;;;;19.30;99.50;;;;;;4996681;28;19983;-63
2023/10/01 01:52:44;;;;;;;;;;;19.30;99.60;;;;;;4996560;28;19983;-63
2023/10/01 01:55:23;;;;;;;;;;;19.20;99.40;;;;;;4996343;28;20042;-63
2023/10/01 01:58:02;;;;;;;;;;;19.20;99.40;;;;;;4996490;28;20066;-63
2023/10/01 02:00:31;;;;;;;;;;;19.20;99.30;;;;;;4996582;28;19982;-64
2023/10/01 02:03:02;;;;;;;;;;;19.10;99.40;;;;;;4996354;28;20427;-64
2023/10/01 02:05:28;;;;;;;;;;;19.00;99.80;;;;;;4996256;28;20484;-64
2023/10/01 02:07:54;;;;;;;;;;;19.00;99.60;;;;;;4996477;28;19983;-63
2023/10/01 02:10:20;;;;;;;;;;;19.00;99.90;;;;;;4996171;28;20032;-64
2023/10/01 02:12:47;;;;;;;;;;;19.00;99.90;;;;;;4996185;28;19990;-63
2023/10/01 02:15:13;;;;;;;;;;;18.90;99.90;;;;;;4996208;28;20426;-64
2023/10/01 02:17:39;;;;;;;;;;;18.90;99.90;;;;;;4996152;28;20059;-64
2023/10/01 02:20:27;;;;;;;;;;;18.90;99.90;;;;;;4996077;28;19983;-63
2023/10/01 02:22:53;;;;;;;;;;;18.80;99.90;;;;;;4996016;28;20009;-63
2023/10/01 02:25:36;;;;;;;;;;;18.80;99.90;;;;;;4995891;28;20125;-64
2023/10/01 02:28:14;;;;;;;;;;;18.80;99.90;;;;;;4996053;28;19990;-63
2023/10/01 02:30:41;;;;;;;;;;;18.80;99.90;;;;;;4995296;28;19982;-63
2023/10/01 02:33:19;;;;;;;;;;;18.70;99.90;;;;;;4996006;28;20081;-63
2023/10/01 02:35:55;;;;;;;;;;;18.70;99.90;;;;;;4995793;28;19989;-63
2023/10/01 02:38:36;;;;;;;;;;;18.60;99.90;;;;;;4995583;28;20496;-63
2023/10/01 02:41:02;;;;;;;;;;;18.60;99.90;;;;;;4995683;28;20408;-63
2023/10/01 02:43:33;;;;;;;;;;;18.50;99.90;;;;;;4978211;28;19987;-63
2023/10/01 02:46:02;;;;;;;;;;;18.50;99.90;;;;;;4995559;28;20476;-63
2023/10/01 02:48:30;;;;;;;;;;;18.40;99.90;;;;;;4995551;28;19983;-63
2023/10/01 02:50:55;;;;;;;;;;;18.30;99.90;;;;;;4995557;28;20041;-64
2023/10/01 02:53:22;;;;;;;;;;;18.30;99.90;;;;;;4995369;28;20083;-64
2023/10/01 02:55:51;;;;;;;;;;;18.20;99.90;;;;;;4995421;28;20359;-64
2023/10/01 02:58:26;;;;;;;;;;;18.20;99.90;;;;;;4995376;28;20005;-64
2023/10/01 03:00:53;;;;;;;;;;;18.10;99.90;;;;;;4995393;28;19990;-63
2023/10/01 03:03:19;;;;;;;;;;;18.00;99.90;;;;;;4995101;28;20018;-63
2023/10/01 03:05:47;;;;;;;;;;;18.00;99.90;;;;;;4977809;28;20072;-63
2023/10/01 03:11:11;;;;;;;;;;;18.10;99.90;;;;;;4962227;28;19994;-63
2023/10/01 03:13:38;;;;;;;;;;;18.10;99.90;;;;;;4977642;28;19986;-64
2023/10/01 03:18:54;;;;;;;;;;;18.10;99.90;;;;;;4995427;28;20064;-63
2023/10/01 03:21:59;;;;;;;;;;;18.20;99.90;;;;;;4994804;28;20029;-64
2023/10/01 03:24:09;;;;;;;;;;;18.20;99.90;;;;;;4994709;28;19990;-63
2023/10/01 03:26:34;;;;;;;;;;;18.20;99.90;;;;;;4994913;28;20001;-63
2023/10/01 03:29:34;;;;;;;;;;;18.20;99.90;;;;;;4994888;28;19983;-63
2023/10/01 03:32:46;;;;;;;;;;;18.10;99.90;;;;;;4994787;28;20014;-63
2023/10/01 03:34:52;;;;;;;;;;;18.20;99.90;;;;;;4984017;28;20077;-63
2023/10/01 03:37:19;;;;;;;;;;;18.10;99.90;;;;;;4994652;28;19983;-63
2023/10/01 03:39:50;;;;;;;;;;;18.10;99.90;;;;;;4994691;28;20074;-64
2023/10/01 03:42:17;;;;;;;;;;;18.10;99.90;;;;;;4993703;28;19986;-63
2023/10/01 03:47:26;;;;;;;;;;;18.10;99.90;;;;;;4994495;28;19983;-63
2023/10/01 03:49:55;;;;;;;;;;;18.10;99.90;;;;;;4994488;28;19983;-64
2023/10/01 03:52:21;;;;;;;;;;;18.10;99.90;;;;;;4977107;28;19986;-64
2023/10/01 03:57:25;;;;;;;;;;;18.20;99.90;;;;;;4994736;28;19982;-63
2023/10/01 03:59:53;;;;;;;;;;;18.20;99.90;;;;;;4976947;28;20003;-63
2023/10/01 04:05:21;;;;;;;;;;;18.20;99.90;;;;;;4994180;28;20021;-63
2023/10/01 04:07:47;;;;;;;;;;;18.10;99.90;;;;;;4976821;28;19991;-63
2023/10/01 04:10:21;;;;;;;;;;;18.20;99.90;;;;;;4994287;28;19983;-64
2023/10/01 04:12:50;;;;;;;;;;;18.10;99.90;;;;;;4994154;28;20069;-63
2023/10/01 04:15:31;;;;;;;;;;;18.00;99.90;;;;;;4994236;28;19993;-64
2023/10/01 04:23:31;;;;;;;;;;;17.80;99.90;;;;;;4994085;28;20124;-64
2023/10/01 04:26:00;;;;;;;;;;;17.80;99.90;;;;;;4994416;28;20052;-63
2023/10/01 04:28:27;;;;;;;;;;;17.70;99.90;;;;;;4994020;28;19987;-63
2023/10/01 04:30:52;;;;;;;;;;;17.70;99.90;;;;;;4994167;28;20074;-63
2023/10/01 04:33:22;;;;;;;;;;;17.70;99.90;;;;;;4993998;28;20145;-63
2023/10/01 04:35:58;;;;;;;;;;;17.70;99.90;;;;;;4993796;28;19990;-63
2023/10/01 04:38:29;;;;;;;;;;;17.70;99.90;;;;;;4994086;28;20026;-63
2023/10/01 04:40:55;;;;;;;;;;;17.70;99.90;;;;;;4994089;28;19983;-64
2023/10/01 04:43:20;;;;;;;;;;;17.80;99.90;;;;;;4993942;28;20444;-63
2023/10/01 04:45:46;;;;;;;;;;;17.80;99.90;;;;;;4993844;28;20058;-63
2023/10/01 04:48:16;;;;;;;;;;;17.80;99.90;;;;;;4976347;28;20034;-63
2023/10/01 04:50:42;;;;;;;;;;;17.80;99.90;;;;;;4993886;28;20077;-63
2023/10/01 04:53:09;;;;;;;;;;;17.70;99.90;;;;;;4995358;28;19987;-63
2023/10/01 04:55:41;;;;;;;;;;;17.50;99.90;;;;;;4997673;28;19994;-63
2023/10/01 04:58:07;;;;;;;;;;;17.60;99.90;;;;;;4997476;28;20049;-64
2023/10/01 05:00:34;;;;;;;;;;;17.60;99.90;;;;;;4997648;28;19983;-63
2023/10/01 05:03:03;;;;;;;;;;;17.70;99.90;;;;;;4997276;28;20481;-63
2023/10/01 05:05:28;;;;;;;;;;;17.70;99.90;;;;;;4997360;28;20007;-63
2023/10/01 05:07:55;;;;;;;;;;;17.80;99.90;;;;;;4997461;28;19982;-63
2023/10/01 05:10:21;;;;;;;;;;;17.80;99.90;;;;;;4997504;28;20018;-63
2023/10/01 05:12:46;;;;;;;;;;;17.80;99.90;;;;;;4997232;28;20026;-63
2023/10/01 05:15:24;;;;;;;;;;;17.90;99.90;;;;;;4997517;28;19983;-63
2023/10/01 05:17:50;;;;;;;;;;;17.90;99.90;;;;;;4997110;28;19983;-63
2023/10/01 05:20:15;;;;;;;;;;;18.00;99.90;;;;;;4997368;28;20002;-63
2023/10/01 05:22:50;;;;;;;;;;;18.00;99.90;;;;;;4997202;28;20396;-64
2023/10/01 05:25:18;;;;;;;;;;;18.00;99.90;;;;;;4997016;28;20408;-63
2023/10/01 05:27:45;;;;;;;;;;;18.00;99.90;;;;;;4997226;28;20460;-63
2023/10/01 05:30:49;;;;;;;;;;;18.00;99.90;;;;;;4997188;28;20086;-63
2023/10/01 05:33:06;;;;;;;;;;;18.00;99.90;;;;;;4993659;28;20430;-63
2023/10/01 05:35:35;;;;;;;;;;;18.00;99.90;;;;;;4996990;28;20081;-63
2023/10/01 05:38:04;;;;;;;;;;;18.00;99.90;;;;;;4996885;28;20006;-63
2023/10/01 05:40:33;;;;;;;;;;;18.10;99.90;;;;;;4996961;28;20030;-63
2023/10/01 05:43:12;;;;;;;;;;;18.20;99.90;;;;;;4996888;28;20461;-63
2023/10/01 05:45:39;;;;;;;;;;;18.20;99.90;;;;;;4996670;28;20046;-64
2023/10/01 05:48:10;;;;;;;;;;;18.30;99.90;;;;;;4996592;28;19982;-63
2023/10/01 05:50:39;;;;;;;;;;;18.40;99.90;;;;;;4996659;28;19994;-64
2023/10/01 05:53:05;;;;;;;;;;;18.30;99.90;;;;;;4996657;28;20376;-64
2023/10/01 05:55:31;;;;;;;;;;;18.30;99.90;;;;;;4996632;28;19983;-63
2023/10/01 05:58:12;;;;;;;;;;;18.30;99.90;;;;;;4978927;28;19987;-63
2023/10/01 06:00:56;;;;;;;;;;;18.50;99.90;;;;;;4996393;28;19987;-63
2023/10/01 06:03:25;;;;;;;;;;;18.60;99.90;;;;;;4996203;28;20057;-63
2023/10/01 06:06:08;;;;;;;;;;;18.80;99.90;;;;;;4995428;28;20014;-64
2023/10/01 06:08:33;;;;;;;;;;;18.80;99.90;;;;;;4996275;28;19983;-63
2023/10/01 06:11:06;;;;;;;;;;;19.00;99.90;;;;;;4996468;28;19983;-63
2023/10/01 06:13:35;;;;;;;;;;;19.10;99.90;;;;;;4996330;28;20484;-64
2023/10/01 06:16:16;;;;;;;;;;;19.10;99.90;;;;;;4995936;28;19982;-63
2023/10/01 06:18:50;;;;;;;;;;;19.00;99.90;;;;;;4996168;28;19990;-64
2023/10/01 06:21:17;;;;;;;;;;;19.10;99.90;;;;;;4996093;28;19991;-64
2023/10/01 06:23:49;;;;;;;;;;;19.20;99.90;;;;;;4996093;28;19983;-63
2023/10/01 06:26:45;;;;;;;;;;;19.10;99.90;;;;;;4995839;28;20010;-64
2023/10/01 06:29:13;;;;;;;;;;;19.10;99.90;;;;;;4994291;28;20299;-63
2023/10/01 06:31:48;;;;;;;;;;;19.10;99.90;;;;;;4995775;28;20033;-63
2023/10/01 06:34:19;;;;;;;;;;;19.10;99.90;;;;;;4996016;28;20065;-63
2023/10/01 06:36:45;;;;;;;;;;;19.20;99.90;;;;;;4995852;28;20082;-63
2023/10/01 06:39:19;;;;;;;;;;;19.20;99.90;;;;;;4995799;28;19987;-64
2023/10/01 06:41:45;;;;;;;;;;;19.30;99.90;;;;;;4995887;28;20053;-63
2023/10/01 06:44:14;;;;;;;;;;;19.50;99.90;;;;;;4995458;28;20026;-63
2023/10/01 06:46:40;;;;;;;;;;;19.60;99.90;;;;;;4995625;28;20007;-63
2023/10/01 06:49:08;;;;;;;;;;;19.70;99.90;;;;;;4995618;28;19993;-63
2023/10/01 06:51:43;;;;;;;;;;;19.70;99.90;;;;;;4995500;28;20500;-64
2023/10/01 06:54:10;;;;;;;;;;;19.80;99.90;;;;;;4995519;28;19982;-63
2023/10/01 06:56:37;;;;;;;;;;;21.10;99.90;;;;;;4995523;28;19991;-64
2023/10/01 07:01:35;;;;;;;;;;;22.10;92.20;;;;;;4995513;28;19984;-63
2023/10/01 07:04:06;;;;;;;;;;;22.20;90.90;;;;;;4995211;28;20105;-63
2023/10/01 07:06:34;;;;;;;;;;;22.20;90.50;;;;;;4995156;28;20006;-64
2023/10/01 07:08:59;;;;;;;;;;;22.20;91.10;;;;;;4977804;28;20370;-64
2023/10/01 07:11:28;;;;;;;;;;;22.20;91.20;;;;;;4995095;28;20006;-64
2023/10/01 07:13:55;;;;;;;;;;;24.10;81.40;;;;;;4994960;28;20071;-64
2023/10/01 07:16:35;;;;;;;;;;;24.20;75.20;;;;;;4994995;28;20006;-64
2023/10/01 07:19:11;;;;;;;;;;;23.80;74.80;;;;;;4995292;28;19990;-64
2023/10/01 07:21:39;;;;;;;;;;;23.50;73.60;;;;;;4995325;28;20126;-64
2023/10/01 07:24:10;;;;;;;;;;;23.20;73.90;;;;;;4994981;28;19991;-64
2023/10/01 07:26:40;;;;;;;;;;;22.80;73.30;;;;;;4994940;28;20010;-64
2023/10/01 07:29:08;;;;;;;;;;;22.70;75.30;;;;;;4994793;28;19990;-64
2023/10/01 07:31:37;;;;;;;;;;;23.00;74.20;;;;;;4994769;28;20061;-64
2023/10/01 07:34:12;;;;;;;;;;;24.60;70.80;;;;;;4994902;28;20014;-64
2023/10/01 07:36:42;;;;;;;;;;;26.30;63.00;;;;;;4994754;28;19993;-64
2023/10/01 07:39:09;;;;;;;;;;;25.70;58.00;;;;;;4994568;28;20064;-64
2023/10/01 07:41:38;;;;;;;;;;;26.60;57.20;;;;;;4994702;28;19983;-64
2023/10/01 07:44:11;;;;;;;;;;;27.10;53.80;;;;;;4994793;28;20025;-64
2023/10/01 07:46:36;;;;;;;;;;;26.00;54.20;;;;;;4994555;28;20006;-63
2023/10/01 07:49:02;;;;;;;;;;;25.20;55.40;;;;;;4994660;28;20005;-64
2023/10/01 07:51:31;;;;;;;;;;;24.60;57.50;;;;;;4994459;28;19982;-64
2023/10/01 07:54:30;;;;;;;;;;;24.20;54.90;;;;;;4994553;28;19983;-64
2023/10/01 07:56:49;;;;;;;;;;;23.70;55.90;;;;;;4991074;28;20472;-64
2023/10/01 07:59:34;;;;;;;;;;;23.00;57.80;;;;;;4994340;28;20464;-63
2023/10/01 08:07:17;;;;;;;;;;;22.50;58.20;;;;;;4994360;28;19994;-63
2023/10/01 08:09:51;;;;;;;;;;;22.10;59.10;;;;;;4994460;28;20034;-64
2023/10/01 08:13:20;;;;;;;;;;;22.00;60.60;;;;;;4994085;28;20030;-63
2023/10/01 08:15:16;;;;;;;;;;;21.90;60.00;;;;;;4977195;28;19994;-64
2023/10/01 08:17:45;;;;;;;;;;;21.90;59.40;;;;;;4994338;28;20345;-63
2023/10/01 08:20:21;;;;;;;;;;;21.90;59.90;;;;;;4994083;28;20001;-63
2023/10/01 08:25:42;;;;;;;;;;;21.70;59.70;;;;;;4994435;28;20025;-63
2023/10/01 08:28:29;;;;;;;;;;;21.60;59.00;;;;;;4995580;28;20033;-64
2023/10/01 08:31:20;;;;;;;;;;;21.60;57.70;;;;;;4997605;28;19986;-64
2023/10/01 08:33:51;;;;;;;;;;;21.50;58.00;;;;;;4998057;28;19990;-64
2023/10/01 08:36:17;;;;;;;;;;;21.70;56.90;;;;;;4998219;28;20429;-64
2023/10/01 08:39:20;;;;;;;;;;;21.70;56.40;;;;;;4998004;28;20029;-64
2023/10/01 08:41:35;;;;;;;;;;;21.60;55.70;;;;;;4996387;28;19987;-63
2023/10/01 08:44:10;;;;;;;;;;;21.60;56.10;;;;;;4998020;28;19987;-64
2023/10/01 08:46:39;;;;;;;;;;;21.70;56.30;;;;;;4997779;28;20006;-64
2023/10/01 08:49:30;;;;;;;;;;;22.00;55.70;;;;;;4997911;28;20631;-64
2023/10/01 08:52:19;;;;;;;;;;;22.10;57.50;;;;;;4998094;28;20040;-63
2023/10/01 08:54:44;;;;;;;;;;;22.40;55.80;;;;;;4997342;28;20089;-64
2023/10/01 08:57:17;;;;;;;;;;;22.50;56.80;;;;;;4997713;28;19983;-64
2023/10/01 08:59:44;;;;;;;;;;;22.50;56.70;;;;;;4997664;28;20009;-64
2023/10/01 09:02:16;;;;;;;;;;;22.20;56.20;;;;;;4997575;28;19983;-64
2023/10/01 09:04:45;;;;;;;;;;;22.20;56.10;;;;;;4997549;28;20384;-64
2023/10/01 09:07:20;;;;;;;;;;;22.30;56.20;;;;;;4997579;28;20456;-63
2023/10/01 09:10:05;;;;;;;;;;;22.50;56.90;;;;;;4997293;28;20447;-64
2023/10/01 09:12:45;;;;;;;;;;;22.60;56.00;;;;;;4997395;28;20077;-64
2023/10/01 09:15:38;;;;;;;;;;;22.50;54.70;;;;;;4997423;28;19982;-64
2023/10/01 09:18:10;;;;;;;;;;;22.50;54.80;;;;;;4997228;28;20345;-64
2023/10/01 09:20:36;;;;;;;;;;;22.60;55.50;;;;;;4997335;28;20066;-64
2023/10/01 09:23:01;;;;;;;;;;;22.70;54.10;;;;;;4997163;28;20073;-64
2023/10/01 09:25:27;;;;;;;;;;;22.80;52.40;;;;;;4997507;28;20154;-64
2023/10/01 09:28:03;;;;;;;;;;;22.90;54.20;;;;;;4997202;28;19983;-64
2023/10/01 09:30:31;;;;;;;;;;;23.10;54.30;;;;;;4979905;28;20345;-64
2023/10/01 09:33:04;;;;;;;;;;;23.50;52.70;;;;;;4997068;28;19989;-65
2023/10/01 09:35:59;;;;;;;;;;;23.80;53.80;;;;;;4997356;28;19990;-64
2023/10/01 09:38:27;;;;;;;;;;;23.90;51.70;;;;;;4996683;28;20033;-64
2023/10/01 09:40:54;;;;;;;;;;;24.30;50.40;;;;;;4995790;28;20064;-64
2023/10/01 09:43:34;;;;;;;;;;;24.60;50.00;;;;;;4997029;28;20033;-64
2023/10/01 09:46:06;;;;;;;;;;;24.80;49.80;;;;;;4996810;28;20365;-64
2023/10/01 09:51:19;;;;;;;;;;;25.20;48.50;;;;;;4996714;28;20069;-64
2023/10/01 09:53:48;;;;;;;;;;;25.40;48.40;;;;;;4996298;28;20058;-65
2023/10/01 09:56:14;;;;;;;;;;;25.60;48.10;;;;;;4996654;28;20069;-64
2023/10/01 09:58:46;;;;;;;;;;;26.00;49.40;;;;;;4996545;28;20604;-64
2023/10/01 10:01:12;;;;;;;;;;;26.40;48.60;;;;;;4996428;28;19983;-64
2023/10/01 10:03:38;;;;;;;;;;;26.70;46.60;;;;;;4996233;28;20022;-64
2023/10/01 10:06:06;;;;;;;;;;;27.10;45.00;;;;;;4996373;28;20014;-64
2023/10/01 10:08:35;;;;;;;;;;;27.20;45.30;;;;;;4996204;28;19983;-64
2023/10/01 10:11:02;;;;;;;;;;;27.20;46.10;;;;;;4996470;28;19989;-63
2023/10/01 10:13:46;;;;;;;;;;;27.40;46.20;;;;;;4996279;28;20037;-64
2023/10/01 10:16:32;;;;;;;;;;;26.90;47.20;;;;;;4996604;28;19990;-64
2023/10/01 10:19:04;;;;;;;;;;;26.80;45.10;;;;;;4979033;28;20009;-64
2023/10/01 10:21:49;;;;;;;;;;;27.00;48.70;;;;;;4996105;28;20349;-64
2023/10/01 10:24:21;;;;;;;;;;;27.40;45.20;;;;;;4996144;28;20401;-65
2023/10/01 10:27:00;;;;;;;;;;;27.80;45.40;;;;;;4996384;28;20060;-64
2023/10/01 10:29:46;;;;;;;;;;;27.60;46.50;;;;;;4995973;28;20033;-64
2023/10/01 10:32:15;;;;;;;;;;;27.50;46.70;;;;;;4996001;28;19983;-64
2023/10/01 10:35:03;;;;;;;;;;;27.50;48.20;;;;;;4995769;28;20021;-64
2023/10/01 10:37:35;;;;;;;;;;;27.70;47.00;;;;;;4996007;28;19983;-64
2023/10/01 10:40:12;;;;;;;;;;;28.20;45.60;;;;;;4995757;28;19989;-64
2023/10/01 10:42:38;;;;;;;;;;;28.40;46.00;;;;;;4996054;28;20337;-64
2023/10/01 10:45:19;;;;;;;;;;;28.30;45.40;;;;;;4978067;28;20457;-64
2023/10/01 10:47:58;;;;;;;;;;;28.40;46.40;;;;;;4995932;28;20026;-64
2023/10/01 10:50:45;;;;;;;;;;;28.50;43.20;;;;;;4977620;28;19992;-64
2023/10/01 10:53:15;;;;;;;;;;;28.70;42.70;;;;;;4995646;28;19983;-65
2023/10/01 10:56:01;;;;;;;;;;;28.80;43.80;;;;;;4995694;28;19983;-64
2023/10/01 10:58:31;;;;;;;;;;;28.70;42.90;;;;;;4978469;28;20009;-64
2023/10/01 11:01:15;;;;;;;;;;;29.00;44.40;;;;;;4995317;28;19983;-64
2023/10/01 11:03:41;;;;;;;;;;;28.80;43.50;;;;;;4977580;28;20029;-65
2023/10/01 11:06:15;;;;;;;;;;;28.30;44.10;;;;;;4995357;28;20006;-64
2023/10/01 11:08:50;;;;;;;;;;;28.30;43.50;;;;;;4995301;28;19983;-64
2023/10/01 11:11:22;;;;;;;;;;;28.30;46.60;;;;;;4977723;28;19990;-65
2023/10/01 11:13:48;;;;;;;;;;;28.30;45.60;;;;;;4995052;28;19983;-64
2023/10/01 11:16:14;;;;;;;;;;;28.40;42.90;;;;;;4995146;28;19983;-64
2023/10/01 11:18:47;;;;;;;;;;;28.60;43.50;;;;;;4995089;28;20453;-64
2023/10/01 11:21:24;;;;;;;;;;;28.90;44.00;;;;;;4977360;28;20132;-65
2023/10/01 11:23:53;;;;;;;;;;;28.90;39.70;;;;;;4995302;28;19983;-65
2023/10/01 11:26:29;;;;;;;;;;;29.10;40.20;;;;;;4994748;28;20006;-63
2023/10/01 11:29:01;;;;;;;;;;;29.40;41.20;;;;;;4995006;28;19982;-65
2023/10/01 11:31:28;;;;;;;;;;;29.20;38.80;;;;;;4977318;28;20041;-64
2023/10/01 11:34:21;;;;;;;;;;;28.90;41.00;;;;;;4995133;28;19982;-63
2023/10/01 11:36:49;;;;;;;;;;;28.90;42.20;;;;;;4994700;28;19982;-64
2023/10/01 11:39:16;;;;;;;;;;;29.00;39.70;;;;;;4995024;28;20433;-64
2023/10/01 11:41:42;;;;;;;;;;;29.00;39.10;;;;;;4994794;28;19983;-64
2023/10/01 11:44:10;;;;;;;;;;;29.30;39.90;;;;;;4994204;28;20445;-64
2023/10/01 11:46:39;;;;;;;;;;;29.20;37.40;;;;;;4994545;28;20085;-64
2023/10/01 11:49:11;;;;;;;;;;;29.00;40.60;;;;;;4994421;28;20016;-64
2023/10/01 11:51:54;;;;;;;;;;;29.10;38.20;;;;;;4994344;28;19997;-65
2023/10/01 11:54:21;;;;;;;;;;;29.10;38.80;;;;;;4977057;28;19986;-64
2023/10/01 11:57:01;;;;;;;;;;;29.30;37.20;;;;;;4994377;28;19989;-65
2023/10/01 11:59:27;;;;;;;;;;;29.60;36.70;;;;;;4993525;28;20114;-64
2023/10/01 12:01:53;;;;;;;;;;;29.80;34.90;;;;;;4994143;28;20076;-64
2023/10/01 12:04:56;;;;;;;;;;;29.90;36.00;;;;;;4993407;28;20069;-64
2023/10/01 12:07:16;;;;;;;;;;;30.00;35.50;;;;;;4991037;28;19994;-64
2023/10/01 12:09:48;;;;;;;;;;;29.40;35.20;;;;;;4994372;28;20448;-64
2023/10/01 12:12:39;;;;;;;;;;;29.30;36.70;;;;;;4994388;28;20081;-64
2023/10/01 12:17:52;;;;;;;;;;;29.90;35.30;;;;;;4994535;28;19988;-64
2023/10/01 12:20:29;;;;;;;;;;;30.20;31.50;;;;;;4994037;28;19983;-64
2023/10/01 12:26:00;;;;;;;;;;;30.00;33.60;;;;;;4977034;28;20551;-65
2023/10/01 12:28:29;;;;;;;;;;;29.80;32.60;;;;;;4994356;28;19993;-65
2023/10/01 12:31:11;;;;;;;;;;;29.80;33.50;;;;;;4992772;28;19993;-65
2023/10/01 12:33:40;;;;;;;;;;;30.00;33.10;;;;;;4993870;28;19983;-64
2023/10/01 12:36:11;;;;;;;;;;;30.00;33.10;;;;;;4994141;28;19987;-65
2023/10/01 12:38:37;;;;;;;;;;;29.90;31.10;;;;;;4994126;28;20042;-64
2023/10/01 12:41:03;;;;;;;;;;;29.90;32.00;;;;;;4994227;28;19987;-63
2023/10/01 12:43:37;;;;;;;;;;;29.90;30.70;;;;;;4994271;28;20330;-64
2023/10/01 12:46:08;;;;;;;;;;;29.80;31.20;;;;;;4993900;28;20417;-64
2023/10/01 12:48:38;;;;;;;;;;;29.90;31.90;;;;;;4993762;28;19983;-65
2023/10/01 12:51:07;;;;;;;;;;;30.00;31.70;;;;;;4993939;28;20361;-64
2023/10/01 12:53:49;;;;;;;;;;;29.70;31.40;;;;;;4993830;28;20082;-64
2023/10/01 12:56:15;;;;;;;;;;;29.30;30.20;;;;;;4994339;28;19983;-64
2023/10/01 12:58:53;;;;;;;;;;;29.20;30.30;;;;;;4993254;28;20346;-65
2023/10/01 13:01:37;;;;;;;;;;;29.00;30.70;;;;;;4993746;28;20025;-64
2023/10/01 13:04:22;;;;;;;;;;;29.10;30.90;;;;;;4993454;28;20018;-64
2023/10/01 13:06:49;;;;;;;;;;;29.20;30.00;;;;;;4994029;28;20014;-64
2023/10/01 13:12:14;;;;;;;;;;;29.50;31.10;;;;;;4993653;28;19989;-64
2023/10/01 13:14:43;;;;;;;;;;;29.30;30.00;;;;;;4996034;28;19983;-64
2023/10/01 13:17:19;;;;;;;;;;;29.10;30.20;;;;;;4997606;28;19983;-64
2023/10/01 13:19:48;;;;;;;;;;;29.20;30.00;;;;;;4997328;28;20029;-65
2023/10/01 13:22:16;;;;;;;;;;;29.60;32.20;;;;;;4963858;28;20449;-64
2023/10/01 13:24:42;;;;;;;;;;;29.90;29.70;;;;;;4997244;28;19990;-65
2023/10/01 13:27:10;;;;;;;;;;;30.00;30.00;;;;;;4997089;28;19982;-64
2023/10/01 13:29:36;;;;;;;;;;;30.20;29.80;;;;;;4997112;28;19994;-64
2023/10/01 13:32:15;;;;;;;;;;;30.20;28.40;;;;;;4996996;28;19983;-65
2023/10/01 13:34:54;;;;;;;;;;;30.30;30.00;;;;;;4997005;28;19989;-64
2023/10/01 13:40:19;;;;;;;;;;;30.50;29.80;;;;;;4996876;28;19989;-64
2023/10/01 14:10:16;;;;;;;;;;;29.90;29.10;;;;;;4996494;28;20345;-64
2023/10/01 14:12:41;;;;;;;;;;;29.70;28.90;;;;;;4996258;28;19983;-65
2023/10/01 14:15:24;;;;;;;;;;;29.50;28.20;;;;;;4978759;28;19986;-65
2023/10/01 14:17:53;;;;;;;;;;;29.30;28.40;;;;;;4996185;28;19982;-65
2023/10/01 14:20:37;;;;;;;;;;;29.00;26.10;;;;;;4996499;28;19989;-64
2023/10/01 14:23:07;;;;;;;;;;;29.10;25.90;;;;;;4996096;28;19997;-64
2023/10/01 14:25:52;;;;;;;;;;;28.90;26.80;;;;;;4995268;28;20010;-65
2023/10/01 14:28:19;;;;;;;;;;;29.10;28.50;;;;;;4996313;28;20081;-65
2023/10/01 14:30:50;;;;;;;;;;;29.50;28.10;;;;;;4995878;28;20437;-65
2023/10/01 14:33:25;;;;;;;;;;;29.60;27.20;;;;;;4995919;28;20093;-65
2023/10/01 14:35:51;;;;;;;;;;;29.60;27.80;;;;;;4995827;28;19982;-64
2023/10/01 14:38:21;;;;;;;;;;;29.60;26.30;;;;;;4962360;28;20376;-64
2023/10/01 14:40:56;;;;;;;;;;;29.40;27.60;;;;;;4996176;28;19989;-64
2023/10/01 14:43:24;;;;;;;;;;;29.60;27.80;;;;;;4996154;28;20109;-64
2023/10/01 14:45:51;;;;;;;;;;;29.30;26.70;;;;;;4995826;28;20010;-64
2023/10/01 14:48:17;;;;;;;;;;;29.40;27.40;;;;;;4995969;28;19994;-64
2023/10/01 14:50:43;;;;;;;;;;;29.30;27.70;;;;;;4978333;28;19995;-63
2023/10/01 14:53:10;;;;;;;;;;;29.30;25.70;;;;;;4995565;28;19983;-63
2023/10/01 14:55:44;;;;;;;;;;;29.10;25.80;;;;;;4995551;28;19991;-65
2023/10/01 14:58:13;;;;;;;;;;;29.00;26.10;;;;;;4977477;28;19986;-64
2023/10/01 15:00:56;;;;;;;;;;;29.10;26.10;;;;;;4995396;28;20016;-64
2023/10/01 15:03:32;;;;;;;;;;;28.90;26.60;;;;;;4995332;28;20433;-64
2023/10/01 15:05:57;;;;;;;;;;;28.70;27.20;;;;;;4995584;28;20104;-63
2023/10/01 15:08:24;;;;;;;;;;;28.40;27.10;;;;;;4995199;28;20014;-64
2023/10/01 15:10:50;;;;;;;;;;;28.30;27.30;;;;;;4995183;28;19983;-63
2023/10/01 15:13:16;;;;;;;;;;;28.00;27.50;;;;;;4995304;28;19994;-64
2023/10/01 15:15:42;;;;;;;;;;;27.80;27.70;;;;;;4995080;28;20438;-63
2023/10/01 15:18:17;;;;;;;;;;;27.90;27.50;;;;;;4977585;28;19993;-64
2023/10/01 15:20:51;;;;;;;;;;;27.80;28.00;;;;;;4995395;28;20090;-64
2023/10/01 15:23:20;;;;;;;;;;;27.90;28.50;;;;;;4994989;28;20076;-64
2023/10/01 15:25:46;;;;;;;;;;;28.00;27.60;;;;;;4994853;28;20017;-64
2023/10/01 15:28:15;;;;;;;;;;;28.10;28.00;;;;;;4994623;28;20037;-64
2023/10/01 15:30:48;;;;;;;;;;;28.10;27.40;;;;;;4977558;28;19991;-63
2023/10/01 15:33:17;;;;;;;;;;;28.10;29.00;;;;;;4994848;28;20357;-63
2023/10/01 15:35:51;;;;;;;;;;;28.10;30.50;;;;;;4994990;28;20032;-63
2023/10/01 15:38:35;;;;;;;;;;;27.60;30.80;;;;;;4977266;28;20073;-63
2023/10/01 15:41:01;;;;;;;;;;;27.00;31.60;;;;;;4994958;28;20025;-64
2023/10/01 15:43:26;;;;;;;;;;;26.30;32.40;;;;;;4994544;28;20381;-64
2023/10/01 15:45:52;;;;;;;;;;;25.50;34.30;;;;;;4994554;28;20473;-63
2023/10/01 15:48:18;;;;;;;;;;;25.10;34.70;;;;;;4994518;28;19982;-63
2023/10/01 15:50:44;;;;;;;;;;;24.60;35.60;;;;;;4994584;28;19990;-63
2023/10/01 15:53:21;;;;;;;;;;;23.90;36.90;;;;;;4994636;28;20065;-63